createdAt,value
2023-03-24T00:01:57.288Z,19.20
2023-03-24T00:04:25.247Z,19.92
2023-03-24T00:06:54.094Z,19.83
2023-03-24T00:09:21.601Z,19.23
2023-03-24T00:11:48.769Z,19.27
2023-03-24T00:14:15.806Z,19.40
2023-03-24T00:16:43.228Z,19.73
2023-03-24T00:19:13.215Z,19.30
2023-03-24T00:21:42.110Z,19.25
2023-03-24T00:24:11.703Z,19.50
2023-03-24T00:26:41.506Z,19.38
2023-03-24T00:29:13.815Z,19.90
2023-03-24T00:31:41.506Z,20.05
2023-03-24T00:34:10.528Z,19.30
2023-03-24T00:36:37.802Z,19.73
2023-03-24T00:39:06.556Z,19.77
2023-03-24T00:41:34.070Z,20.30
2023-03-24T00:44:03.939Z,20.00
2023-03-24T00:46:31.255Z,20.00
2023-03-24T00:49:07.350Z,19.65
2023-03-24T00:51:40.142Z,20.15
2023-03-24T00:54:10.144Z,19.77
2023-03-24T00:56:40.613Z,20.35
2023-03-24T00:59:10.458Z,20.15
2023-03-24T01:01:41.424Z,20.10
2023-03-24T01:04:10.254Z,20.98
2023-03-24T01:06:38.038Z,20.35
2023-03-24T01:09:06.671Z,21.85
2023-03-24T01:11:38.912Z,22.70
2023-03-24T01:14:06.375Z,22.08
2023-03-24T01:16:33.513Z,22.88
2023-03-24T01:19:00.661Z,23.30
2023-03-24T01:21:27.867Z,24.27
2023-03-24T01:23:55.017Z,24.00
2023-03-24T01:26:22.004Z,23.80
2023-03-24T01:28:49.069Z,24.73
2023-03-24T01:31:16.256Z,23.80
2023-03-24T01:33:43.259Z,24.42
2023-03-24T01:36:10.771Z,24.55
2023-03-24T01:38:38.557Z,24.50
2023-03-24T01:41:07.190Z,24.08
2023-03-24T01:43:36.104Z,24.42
2023-03-24T01:46:19.707Z,24.67
2023-03-24T01:48:55.379Z,24.67
2023-03-24T01:51:31.576Z,23.15
2023-03-24T01:54:02.569Z,24.30
2023-03-24T01:56:34.170Z,23.33
2023-03-24T01:59:06.088Z,24.08
2023-03-24T02:01:34.029Z,23.10
2023-03-24T02:04:04.312Z,23.05
2023-03-24T02:06:34.671Z,22.42
2023-03-24T02:09:02.881Z,23.15
2023-03-24T02:11:32.866Z,22.70
2023-03-24T02:14:00.220Z,22.30
2023-03-24T02:17:11.146Z,22.95
2023-03-24T02:20:07.708Z,22.73
2023-03-24T02:22:46.826Z,22.23
2023-03-24T02:25:33.283Z,22.23
2023-03-24T02:28:25.213Z,22.10
2023-03-24T02:31:21.867Z,22.77
2023-03-24T02:34:26.086Z,22.90
2023-03-24T02:37:18.931Z,22.13
2023-03-24T02:39:57.598Z,24.40
2023-03-24T02:42:36.626Z,22.42
2023-03-24T02:45:28.375Z,22.05
2023-03-24T02:48:01.459Z,21.90
2023-03-24T02:50:51.862Z,22.02
2023-03-24T02:53:23.529Z,21.98
2023-03-24T02:55:59.012Z,21.90
2023-03-24T02:58:38.670Z,22.13
2023-03-24T03:01:14.383Z,22.00
2023-03-24T03:03:48.358Z,21.95
2023-03-24T03:06:26.078Z,21.98
2023-03-24T03:08:56.124Z,22.30
2023-03-24T03:11:23.270Z,22.48
2023-03-24T03:13:56.528Z,22.10
2023-03-24T03:16:39.296Z,22.60
2023-03-24T03:19:23.147Z,21.65
2023-03-24T03:21:52.564Z,21.77
2023-03-24T03:24:33.593Z,21.20
2023-03-24T03:27:10.151Z,22.17
2023-03-24T03:29:40.684Z,22.55
2023-03-24T03:32:12.321Z,23.35
2023-03-24T03:35:22.724Z,22.95
2023-03-24T03:38:14.119Z,24.02
2023-03-24T03:40:54.331Z,23.70
2023-03-24T03:43:21.903Z,24.58
2023-03-24T03:45:49.155Z,24.33
2023-03-24T03:48:17.367Z,24.52
2023-03-24T03:50:44.923Z,24.85
2023-03-24T03:53:15.589Z,24.73
2023-03-24T03:55:42.972Z,24.85
2023-03-24T03:58:10.442Z,24.90
2023-03-24T04:00:38.334Z,26.50
2023-03-24T04:03:24.063Z,24.65
2023-03-24T04:05:57.993Z,25.52
2023-03-24T04:08:46.024Z,26.25
2023-03-24T04:11:40.744Z,25.33
2023-03-24T04:14:20.785Z,25.48
2023-03-24T04:17:23.158Z,25.33
2023-03-24T04:20:15.027Z,25.63
2023-03-24T04:23:03.336Z,25.42
2023-03-24T04:25:36.566Z,25.90
2023-03-24T04:28:20.664Z,25.60
2023-03-24T04:30:56.169Z,26.00
2023-03-24T04:33:50.980Z,26.85
2023-03-24T04:39:01.872Z,26.63
2023-03-24T04:41:30.582Z,26.23
2023-03-24T04:43:58.950Z,25.58
2023-03-24T04:46:27.210Z,26.25
2023-03-24T04:48:54.285Z,25.23
2023-03-24T04:51:22.438Z,25.15
2023-03-24T04:53:49.525Z,25.10
2023-03-24T04:56:37.362Z,23.27
2023-03-24T04:59:04.417Z,24.08
2023-03-24T05:01:31.470Z,23.48
2023-03-24T05:03:59.568Z,23.58
2023-03-24T05:06:27.683Z,23.48
2023-03-24T05:08:54.757Z,23.70
2023-03-24T05:11:21.673Z,24.98
2023-03-24T05:13:48.701Z,24.08
2023-03-24T05:16:16.081Z,24.55
2023-03-24T05:18:43.508Z,24.52
2023-03-24T05:21:10.580Z,25.25
2023-03-24T05:23:37.972Z,24.67
2023-03-24T05:26:05.658Z,25.33
2023-03-24T05:28:32.795Z,25.67
2023-03-24T05:31:01.496Z,26.30
2023-03-24T05:33:28.636Z,25.63
2023-03-24T05:35:55.660Z,26.38
2023-03-24T05:38:22.727Z,27.08
2023-03-24T05:40:49.950Z,29.98
2023-03-24T05:43:17.026Z,28.23
2023-03-24T05:45:44.405Z,27.23
2023-03-24T05:48:11.662Z,26.33
2023-03-24T05:50:38.680Z,27.60
2023-03-24T05:53:05.654Z,27.23
2023-03-24T05:55:32.711Z,26.85
2023-03-24T05:58:02.211Z,28.48
2023-03-24T06:00:30.632Z,28.02
2023-03-24T06:02:58.651Z,24.98
2023-03-24T06:05:26.828Z,24.77
2023-03-24T06:07:58.839Z,24.70
2023-03-24T06:10:26.602Z,23.73
2023-03-24T06:12:54.262Z,23.95
2023-03-24T06:15:22.708Z,24.85
2023-03-24T06:17:50.381Z,24.58
2023-03-24T06:20:18.841Z,23.90
2023-03-24T06:22:50.473Z,23.70
2023-03-24T06:25:20.449Z,23.67
2023-03-24T06:27:47.671Z,21.88
2023-03-24T06:30:17.758Z,22.67
2023-03-24T06:32:48.301Z,22.92
2023-03-24T06:35:17.215Z,22.90
2023-03-24T06:37:45.015Z,21.98
2023-03-24T06:40:15.989Z,21.40
2023-03-24T06:42:43.089Z,21.10
2023-03-24T06:45:11.085Z,21.75
2023-03-24T06:47:38.522Z,21.42
2023-03-24T06:50:07.172Z,20.63
2023-03-24T06:52:35.772Z,21.05
2023-03-24T06:55:03.557Z,21.00
2023-03-24T06:57:30.823Z,21.33
2023-03-24T06:59:57.928Z,20.98
2023-03-24T07:02:25.016Z,20.42
2023-03-24T07:04:54.179Z,20.83
2023-03-24T07:08:06.080Z,20.88
2023-03-24T07:10:09.925Z,21.75
2023-03-24T07:12:36.922Z,21.48
2023-03-24T07:15:04.745Z,21.58
2023-03-24T07:17:31.864Z,21.42
2023-03-24T07:19:59.068Z,21.55
2023-03-24T07:22:26.412Z,22.65
2023-03-24T07:24:54.359Z,21.13
2023-03-24T07:27:21.518Z,20.90
2023-03-24T07:29:48.444Z,20.35
2023-03-24T07:32:15.887Z,20.92
2023-03-24T07:34:44.001Z,20.45
2023-03-24T07:37:11.465Z,20.63
2023-03-24T07:39:38.430Z,20.98
2023-03-24T07:42:06.238Z,21.00
2023-03-24T07:44:33.247Z,20.85
2023-03-24T07:47:00.523Z,21.10
2023-03-24T07:49:27.516Z,21.23
2023-03-24T07:51:54.532Z,20.85
2023-03-24T07:54:21.871Z,21.15
2023-03-24T07:56:48.881Z,20.95
2023-03-24T07:59:17.367Z,21.08
2023-03-24T08:01:46.631Z,21.50
2023-03-24T08:04:14.950Z,21.70
2023-03-24T08:06:44.185Z,21.63
2023-03-24T08:09:11.698Z,21.42
2023-03-24T08:11:39.448Z,21.33
2023-03-24T08:14:06.614Z,22.15
2023-03-24T08:16:33.712Z,26.63
2023-03-24T08:19:00.732Z,26.35
2023-03-24T08:21:27.996Z,25.52
2023-03-24T08:23:54.964Z,29.58
2023-03-24T08:26:22.786Z,34.35
2023-03-24T08:28:49.756Z,27.48
2023-03-24T08:31:16.753Z,28.48
2023-03-24T08:33:43.756Z,28.38
2023-03-24T08:36:10.848Z,27.85
2023-03-24T08:38:39.108Z,28.55
2023-03-24T08:41:07.037Z,29.85
2023-03-24T08:43:36.059Z,28.52
2023-03-24T08:46:07.010Z,29.05
2023-03-24T08:48:34.946Z,29.85
2023-03-24T08:51:18.952Z,29.48
2023-03-24T08:53:45.999Z,29.90
2023-03-24T08:56:13.805Z,31.67
2023-03-24T08:58:41.042Z,30.67
2023-03-24T09:01:08.140Z,27.95
2023-03-24T09:03:36.121Z,29.90
2023-03-24T09:06:03.215Z,31.25
2023-03-24T09:08:30.142Z,29.90
2023-03-24T09:10:57.193Z,29.98
2023-03-24T09:13:24.566Z,36.13
2023-03-24T09:15:54.365Z,31.92
2023-03-24T09:18:22.268Z,29.83
2023-03-24T09:20:50.412Z,29.67
2023-03-24T09:23:18.063Z,28.77
2023-03-24T09:25:45.783Z,29.70
2023-03-24T09:28:14.731Z,31.55
2023-03-24T09:30:42.257Z,30.00
2023-03-24T09:33:09.355Z,30.20
2023-03-24T09:35:36.659Z,32.90
2023-03-24T09:38:03.751Z,34.03
2023-03-24T09:40:35.977Z,32.15
2023-03-24T09:43:12.845Z,31.98
2023-03-24T09:46:02.271Z,28.35
2023-03-24T09:48:42.454Z,27.30
2023-03-24T09:51:20.908Z,29.20
2023-03-24T09:54:06.613Z,28.35
2023-03-24T09:56:36.675Z,26.42
2023-03-24T09:59:07.283Z,25.60
2023-03-24T10:01:36.497Z,25.52
2023-03-24T10:04:05.209Z,25.48
2023-03-24T10:06:40.211Z,24.67
2023-03-24T10:09:21.353Z,24.55
2023-03-24T10:12:18.362Z,25.92
2023-03-24T10:15:06.996Z,24.98
2023-03-24T10:18:14.895Z,26.98
2023-03-24T10:20:50.758Z,27.48
2023-03-24T10:23:36.500Z,26.95
2023-03-24T10:26:04.779Z,27.08
2023-03-24T10:28:41.682Z,26.52
2023-03-24T10:31:13.735Z,25.70
2023-03-24T10:33:43.899Z,25.08
2023-03-24T10:36:20.198Z,25.35
2023-03-24T10:38:48.098Z,24.48
2023-03-24T10:41:23.789Z,25.38
2023-03-24T10:43:53.030Z,23.98
2023-03-24T10:46:26.224Z,23.20
2023-03-24T10:49:06.266Z,23.50
2023-03-24T10:51:35.019Z,21.75
2023-03-24T10:54:22.205Z,23.60
2023-03-24T10:56:58.162Z,21.88
2023-03-24T10:59:36.839Z,20.67
2023-03-24T11:02:09.642Z,20.42
2023-03-24T11:04:43.985Z,20.63
2023-03-24T11:07:20.992Z,20.20
2023-03-24T11:10:02.913Z,19.98
2023-03-24T11:12:32.362Z,20.33
2023-03-24T11:15:17.667Z,19.85
2023-03-24T11:17:52.736Z,20.00
2023-03-24T11:20:44.391Z,20.48
2023-03-24T11:23:31.497Z,21.70
2023-03-24T11:26:13.520Z,19.05
2023-03-24T11:29:06.592Z,19.58
2023-03-24T11:31:38.317Z,19.70
2023-03-24T11:34:20.208Z,19.88
2023-03-24T11:37:13.020Z,28.48
2023-03-24T11:39:40.271Z,21.90
2023-03-24T11:42:17.477Z,20.48
2023-03-24T11:44:51.415Z,19.60
2023-03-24T11:47:37.778Z,19.70
2023-03-24T11:50:11.114Z,20.45
2023-03-24T11:52:47.478Z,20.13
2023-03-24T11:55:22.770Z,20.65
2023-03-24T11:58:35.642Z,20.08
2023-03-24T12:01:12.078Z,20.38
2023-03-24T12:03:53.979Z,19.80
2023-03-24T12:06:41.859Z,20.40
2023-03-24T12:09:32.810Z,19.33
2023-03-24T12:12:16.101Z,19.40
2023-03-24T12:15:26.555Z,19.50
2023-03-24T12:18:40.687Z,19.05
2023-03-24T12:21:25.051Z,19.60
2023-03-24T12:26:32.949Z,18.98
2023-03-24T12:29:24.428Z,18.35
2023-03-24T12:31:54.128Z,18.25
2023-03-24T12:34:36.456Z,18.17
2023-03-24T12:37:31.260Z,17.70
2023-03-24T12:40:32.675Z,18.52
2023-03-24T12:43:32.037Z,17.80
2023-03-24T12:46:03.715Z,18.08
2023-03-24T12:48:42.724Z,17.27
2023-03-24T12:51:12.353Z,18.23
2023-03-24T12:53:42.249Z,18.13
2023-03-24T12:56:26.250Z,17.75
2023-03-24T12:59:14.900Z,18.55
2023-03-24T13:02:02.648Z,18.50
2023-03-24T13:04:35.596Z,18.63
2023-03-24T13:07:15.445Z,19.27
2023-03-24T13:10:07.043Z,19.05
2023-03-24T13:13:11.634Z,18.85
2023-03-24T13:15:38.549Z,19.38
2023-03-24T13:18:11.816Z,19.05
2023-03-24T13:20:44.914Z,19.90
2023-03-24T13:23:43.906Z,18.38
2023-03-24T13:26:32.390Z,18.60
2023-03-24T13:29:11.230Z,18.88
2023-03-24T13:31:53.955Z,18.50
2023-03-24T13:34:44.333Z,18.65
2023-03-24T13:37:19.612Z,18.40
2023-03-24T13:39:47.509Z,18.10
2023-03-24T13:42:47.904Z,17.38
2023-03-24T13:45:51.937Z,17.40
2023-03-24T13:48:32.495Z,17.17
2023-03-24T13:51:25.465Z,18.60
2023-03-24T13:54:20.597Z,17.75
2023-03-24T13:57:18.740Z,18.80
2023-03-24T14:00:20.375Z,18.88
2023-03-24T14:03:06.313Z,16.25
2023-03-24T14:05:58.517Z,16.08
2023-03-24T14:09:02.494Z,16.70
2023-03-24T14:11:32.511Z,16.75
2023-03-24T14:14:07.553Z,16.45
2023-03-24T14:16:35.198Z,16.25
2023-03-24T14:19:39.475Z,16.60
2023-03-24T14:22:33.465Z,16.05
2023-03-24T14:25:20.441Z,15.87
2023-03-24T14:27:49.413Z,16.48
2023-03-24T14:30:25.290Z,16.20
2023-03-24T14:33:02.687Z,16.38
2023-03-24T14:35:32.874Z,16.38
2023-03-24T14:38:18.927Z,17.08
2023-03-24T14:40:52.118Z,17.05
2023-03-24T14:43:48.171Z,16.33
2023-03-24T14:46:21.217Z,16.10
2023-03-24T14:49:28.097Z,16.75
2023-03-24T14:51:58.397Z,16.00
2023-03-24T14:54:47.417Z,16.60
2023-03-24T14:57:20.737Z,17.77
2023-03-24T15:00:01.184Z,18.30
2023-03-24T15:02:44.091Z,17.85
2023-03-24T15:05:31.201Z,17.25
2023-03-24T15:08:18.977Z,16.88
2023-03-24T15:10:54.853Z,17.27
2023-03-24T15:13:48.182Z,17.13
2023-03-24T15:16:15.128Z,16.17
2023-03-24T15:18:58.136Z,16.65
2023-03-24T15:21:36.958Z,15.68
2023-03-24T15:24:23.570Z,17.80
2023-03-24T15:26:54.056Z,17.35
2023-03-24T15:29:21.267Z,16.20
2023-03-24T15:31:50.008Z,15.93
2023-03-24T15:34:40.169Z,16.35
2023-03-24T15:37:23.100Z,17.75
2023-03-24T15:40:01.690Z,17.77
2023-03-24T15:42:43.426Z,18.15
2023-03-24T15:45:33.462Z,18.48
2023-03-24T15:48:09.127Z,17.58
2023-03-24T15:50:38.698Z,18.15
2023-03-24T15:53:07.310Z,18.65
2023-03-24T15:55:36.850Z,18.60
2023-03-24T15:58:28.041Z,18.48
2023-03-24T16:01:02.957Z,19.52
2023-03-24T16:03:34.424Z,18.70
2023-03-24T16:06:02.633Z,18.98
2023-03-24T16:08:39.198Z,18.92
2023-03-24T16:11:11.238Z,18.95
2023-03-24T16:13:39.814Z,19.58
2023-03-24T16:16:16.123Z,19.42
2023-03-24T16:18:45.980Z,19.05
2023-03-24T16:21:27.938Z,19.05
2023-03-24T16:23:56.697Z,19.17
2023-03-24T16:26:26.188Z,19.38
2023-03-24T16:28:54.311Z,19.60
2023-03-24T16:31:26.922Z,19.10
2023-03-24T16:33:57.276Z,18.83
2023-03-24T16:36:27.875Z,18.75
2023-03-24T16:38:56.788Z,18.65
2023-03-24T16:41:24.464Z,18.50
2023-03-24T16:43:53.301Z,18.88
2023-03-24T16:46:26.664Z,18.48
2023-03-24T16:48:54.367Z,18.08
2023-03-24T16:51:21.647Z,20.05
2023-03-24T16:53:48.676Z,20.90
2023-03-24T16:56:18.509Z,27.55
2023-03-24T16:58:48.998Z,24.92
2023-03-24T17:01:41.391Z,20.33
2023-03-24T17:04:19.926Z,18.80
2023-03-24T17:06:50.867Z,19.60
2023-03-24T17:09:17.879Z,19.55
2023-03-24T17:11:54.158Z,19.10
2023-03-24T17:14:21.556Z,19.50
2023-03-24T17:16:50.715Z,19.92
2023-03-24T17:19:20.330Z,20.30
2023-03-24T17:22:04.434Z,20.15
2023-03-24T17:24:38.226Z,22.35
2023-03-24T17:27:18.939Z,21.38
2023-03-24T17:29:46.525Z,20.08
2023-03-24T17:32:13.454Z,19.70
2023-03-24T17:34:45.624Z,20.13
2023-03-24T17:37:13.036Z,19.95
2023-03-24T17:39:40.536Z,19.63
2023-03-24T17:42:07.508Z,20.40
2023-03-24T17:44:34.562Z,20.00
2023-03-24T17:47:01.700Z,20.00
2023-03-24T17:49:28.776Z,20.58
2023-03-24T17:51:55.744Z,20.98
2023-03-24T17:54:22.812Z,20.80
2023-03-24T17:56:49.868Z,21.60
2023-03-24T17:59:17.137Z,21.23
2023-03-24T18:01:44.076Z,21.70
2023-03-24T18:04:11.084Z,21.08
2023-03-24T18:06:39.351Z,20.52
2023-03-24T18:09:07.469Z,20.83
2023-03-24T18:11:34.974Z,20.80
2023-03-24T18:14:02.258Z,21.23
2023-03-24T18:16:31.017Z,20.95
2023-03-24T18:18:58.387Z,20.80
2023-03-24T18:21:25.451Z,20.58
2023-03-24T18:23:52.405Z,20.92
2023-03-24T18:26:19.451Z,20.60
2023-03-24T18:28:46.732Z,21.10
2023-03-24T18:31:16.365Z,21.08
2023-03-24T18:33:46.027Z,21.08
2023-03-24T18:36:16.699Z,20.83
2023-03-24T18:38:43.960Z,20.27
2023-03-24T18:41:12.982Z,20.05
2023-03-24T18:43:47.556Z,20.08
2023-03-24T18:46:15.517Z,20.08
2023-03-24T18:48:43.527Z,20.40
2023-03-24T18:51:11.465Z,20.10
2023-03-24T18:53:39.033Z,22.52
2023-03-24T18:56:07.219Z,20.13
2023-03-24T18:58:34.964Z,20.38
2023-03-24T19:01:07.535Z,19.85
2023-03-24T19:03:35.829Z,20.65
2023-03-24T19:06:07.099Z,21.30
2023-03-24T19:08:36.186Z,20.77
2023-03-24T19:11:03.743Z,20.67
2023-03-24T19:13:31.105Z,20.10
2023-03-24T19:15:58.186Z,21.02
2023-03-24T19:18:25.878Z,20.58
2023-03-24T19:20:57.793Z,21.13
2023-03-24T19:23:26.056Z,22.08
2023-03-24T19:25:57.099Z,20.50
2023-03-24T19:28:29.945Z,21.00
2023-03-24T19:30:59.361Z,20.00
2023-03-24T19:33:29.722Z,19.88
2023-03-24T19:35:58.475Z,19.90
2023-03-24T19:38:25.568Z,19.48
2023-03-24T19:40:54.158Z,19.35
2023-03-24T19:43:22.613Z,19.85
2023-03-24T19:45:54.495Z,19.88
2023-03-24T19:48:22.630Z,19.58
2023-03-24T19:50:51.563Z,19.23
2023-03-24T19:53:20.652Z,18.95
2023-03-24T19:55:48.663Z,19.27
2023-03-24T19:58:16.675Z,19.27
2023-03-24T20:00:44.085Z,18.80
2023-03-24T20:03:11.179Z,18.50
2023-03-24T20:05:38.278Z,18.25
2023-03-24T20:08:05.677Z,18.50
2023-03-24T20:10:34.807Z,18.48
2023-03-24T20:13:01.860Z,18.77
2023-03-24T20:15:28.817Z,18.48
2023-03-24T20:17:55.874Z,18.20
2023-03-24T20:20:22.862Z,18.30
2023-03-24T20:22:49.959Z,18.65
2023-03-24T20:25:18.437Z,18.42
2023-03-24T20:27:47.616Z,18.50
2023-03-24T20:30:17.856Z,19.30
2023-03-24T20:32:45.005Z,19.50
2023-03-24T20:35:12.724Z,18.70
2023-03-24T20:37:39.715Z,19.45
2023-03-24T20:40:09.697Z,19.17
2023-03-24T20:42:37.407Z,19.65
2023-03-24T20:45:06.336Z,19.25
2023-03-24T20:47:33.568Z,19.42
2023-03-24T20:50:01.381Z,19.90
2023-03-24T20:52:29.302Z,20.10
2023-03-24T20:54:56.646Z,20.63
2023-03-24T20:57:25.824Z,21.33
2023-03-24T20:59:52.893Z,20.80
2023-03-24T21:02:20.366Z,20.60
2023-03-24T21:04:47.462Z,20.27
2023-03-24T21:07:14.708Z,21.42
2023-03-24T21:09:41.619Z,21.38
2023-03-24T21:12:09.527Z,21.17
2023-03-24T21:14:36.553Z,21.73
2023-03-24T21:17:03.790Z,22.38
2023-03-24T21:19:32.187Z,21.30
2023-03-24T21:21:59.467Z,21.50
2023-03-24T21:24:26.509Z,21.63
2023-03-24T21:26:57.132Z,21.38
2023-03-24T21:29:24.584Z,21.38
2023-03-24T21:31:51.699Z,22.70
2023-03-24T21:34:18.805Z,21.90
2023-03-24T21:36:46.246Z,22.10
2023-03-24T21:39:13.268Z,22.60
2023-03-24T21:41:40.308Z,22.05
2023-03-24T21:44:09.574Z,22.50
2023-03-24T21:46:37.039Z,23.10
2023-03-24T21:49:05.186Z,22.73
2023-03-24T21:51:34.576Z,22.48
2023-03-24T21:54:03.610Z,22.15
2023-03-24T21:56:32.506Z,22.73
2023-03-24T21:58:59.737Z,22.60
2023-03-24T22:01:27.407Z,22.75
2023-03-24T22:03:54.768Z,21.48
2023-03-24T22:06:22.915Z,22.35
2023-03-24T22:08:53.305Z,21.88
2023-03-24T22:11:20.510Z,21.80
2023-03-24T22:13:47.749Z,21.60
2023-03-24T22:16:15.016Z,21.70
2023-03-24T22:18:43.004Z,21.52
2023-03-24T22:21:11.126Z,22.27
2023-03-24T22:23:40.594Z,22.17
2023-03-24T22:26:13.745Z,22.02
2023-03-24T22:28:42.506Z,22.10
2023-03-24T22:31:12.548Z,21.33
2023-03-24T22:33:39.840Z,22.13
2023-03-24T22:36:08.040Z,21.48
2023-03-24T22:38:35.430Z,21.73
2023-03-24T22:41:08.277Z,22.25
2023-03-24T22:43:36.507Z,21.45
2023-03-24T22:46:04.111Z,21.75
2023-03-24T22:48:31.392Z,22.23
2023-03-24T22:50:58.444Z,23.63
2023-03-24T22:53:25.489Z,21.20
2023-03-24T22:55:52.809Z,21.77
2023-03-24T22:58:20.541Z,21.25
2023-03-24T23:00:49.838Z,21.40
2023-03-24T23:03:17.048Z,21.15
2023-03-24T23:05:46.251Z,21.63
2023-03-24T23:08:15.230Z,21.70
2023-03-24T23:10:44.407Z,21.70
2023-03-24T23:13:12.320Z,21.05
2023-03-24T23:15:42.538Z,21.35
2023-03-24T23:18:10.131Z,21.23
2023-03-24T23:20:37.616Z,21.33
2023-03-24T23:23:06.845Z,21.10
2023-03-24T23:25:43.326Z,21.52
2023-03-24T23:28:11.791Z,20.55
2023-03-24T23:30:39.853Z,21.00
2023-03-24T23:33:07.026Z,20.92
2023-03-24T23:35:34.193Z,20.25
2023-03-24T23:38:02.490Z,19.73
2023-03-24T23:40:29.482Z,19.85
2023-03-24T23:42:56.507Z,19.42
2023-03-24T23:45:23.664Z,20.17
2023-03-24T23:47:51.906Z,20.85
2023-03-24T23:50:20.637Z,21.02
2023-03-24T23:52:47.931Z,20.67
2023-03-24T23:55:16.419Z,21.15
2023-03-24T23:57:43.741Z,21.15
